Time;durP1;ratioP1;P1;durP2;ratioP2;P2;SDS_P1;SDS_P2;PMS_P1;PMS_P2;Temp;Humidity;BMP_temperature;BMP_pressure;BME280_temperature;BME280_humidity;BME280_pressure;Samples;Min_cycle;Max_cycle;Signal;HPM_P1;HPM_P2
2021/08/09 00:02:18;;;;;;;47.00;4.22;;;40.80;34.40;;;;;;5042607;28;20094;-65
2021/08/09 00:04:45;;;;;;;27.50;4.35;;;40.70;34.50;;;;;;5045251;28;20105;-64
2021/08/09 00:07:12;;;;;;;31.75;3.95;;;40.70;34.50;;;;;;5048123;28;20562;-64
2021/08/09 00:09:39;;;;;;;28.73;3.90;;;40.70;34.40;;;;;;5041856;28;20117;-65
2021/08/09 00:12:06;;;;;;;27.02;3.28;;;40.80;34.10;;;;;;5044541;28;20419;-66
2021/08/09 00:14:32;;;;;;;29.67;5.60;;;40.80;33.90;;;;;;5044376;28;20112;-65
2021/08/09 00:16:59;;;;;;;24.85;3.90;;;40.70;33.90;;;;;;5042455;28;20112;-66
2021/08/09 00:19:25;;;;;;;29.55;3.83;;;40.70;34.20;;;;;;5042387;28;20097;-65
2021/08/09 00:21:52;;;;;;;21.55;3.55;;;40.60;34.30;;;;;;5044697;28;20106;-65
2021/08/09 00:24:18;;;;;;;22.92;4.60;;;40.70;34.40;;;;;;5046694;28;20077;-64
2021/08/09 00:26:45;;;;;;;25.50;3.97;;;40.70;33.60;;;;;;5042413;28;20546;-65
2021/08/09 00:29:11;;;;;;;30.95;3.58;;;40.70;34.30;;;;;;5042612;28;20077;-64
2021/08/09 00:31:38;;;;;;;31.80;4.57;;;40.70;33.20;;;;;;5043795;28;20096;-63
2021/08/09 00:34:04;;;;;;;29.08;3.97;;;40.50;33.10;;;;;;5042138;28;20209;-66
2021/08/09 00:36:31;;;;;;;31.50;4.00;;;40.30;33.40;;;;;;5043813;28;20088;-64
2021/08/09 00:38:57;;;;;;;30.17;4.30;;;40.30;33.80;;;;;;5042522;28;20078;-64
2021/08/09 00:41:24;;;;;;;31.48;4.07;;;40.20;33.90;;;;;;5049215;28;20189;-63
2021/08/09 00:43:50;;;;;;;38.22;4.97;;;40.10;34.20;;;;;;5049803;28;20077;-65
2021/08/09 00:46:17;;;;;;;30.77;5.68;;;40.10;34.70;;;;;;5046536;28;20076;-64
2021/08/09 00:48:44;;;;;;;24.40;5.78;;;40.00;34.90;;;;;;5045053;28;21538;-64
2021/08/09 00:51:11;;;;;;;29.27;3.88;;;39.90;35.70;;;;;;5044348;28;20103;-65
2021/08/09 00:53:39;;;;;;;32.03;5.20;;;39.80;35.90;;;;;;5043249;28;20069;-66
2021/08/09 00:56:06;;;;;;;39.03;5.50;;;39.80;36.50;;;;;;5046873;28;20136;-65
2021/08/09 00:58:33;;;;;;;43.65;7.90;;;39.80;36.60;;;;;;5039673;28;20072;-66
2021/08/09 01:01:00;;;;;;;36.35;9.57;;;39.70;37.10;;;;;;5047734;28;20109;-64
2021/08/09 01:03:26;;;;;;;45.67;13.00;;;39.60;37.40;;;;;;5042893;28;20086;-66
2021/08/09 01:05:53;;;;;;;41.75;8.68;;;39.50;37.70;;;;;;5044545;28;20120;-66
2021/08/09 01:08:44;;;;;;;28.05;5.57;;;39.40;37.90;;;;;;5044954;28;20108;-64
2021/08/09 01:11:35;;;;;;;40.97;5.90;;;39.30;38.10;;;;;;5042084;28;20187;-65
2021/08/09 01:14:18;;;;;;;17.45;5.20;;;39.20;38.40;;;;;;5043642;28;20396;-65
2021/08/09 01:16:46;;;;;;;19.90;4.95;;;39.10;38.40;;;;;;5040169;28;20072;-65
2021/08/09 01:19:30;;;;;;;52.63;8.48;;;39.00;38.80;;;;;;5042137;28;20074;-63
2021/08/09 01:22:22;;;;;;;29.85;8.43;;;38.90;38.90;;;;;;5042219;28;20106;-63
2021/08/09 01:25:22;;;;;;;31.25;6.15;;;38.90;39.20;;;;;;5044423;28;20088;-66
2021/08/09 01:27:51;;;;;;;31.00;6.30;;;38.90;39.40;;;;;;5045083;28;20580;-65
2021/08/09 01:30:20;;;;;;;26.83;5.00;;;38.70;39.70;;;;;;5039800;28;20077;-65
2021/08/09 01:32:48;;;;;;;27.45;5.78;;;38.70;39.90;;;;;;5043493;28;20070;-66
2021/08/09 01:35:16;;;;;;;33.80;4.88;;;38.60;39.90;;;;;;5043809;28;20073;-65
2021/08/09 01:37:52;;;;;;;38.70;4.80;;;38.60;40.00;;;;;;5041109;28;20477;-66
2021/08/09 01:40:20;;;;;;;35.85;3.80;;;38.50;39.50;;;;;;5044206;28;20073;-66
2021/08/09 01:42:47;;;;;;;29.95;3.70;;;38.60;39.10;;;;;;5043088;28;20140;-64
2021/08/09 01:45:16;;;;;;;23.42;3.72;;;38.70;38.60;;;;;;5041853;28;20074;-65
2021/08/09 01:47:43;;;;;;;26.98;3.78;;;38.60;38.90;;;;;;5042659;28;20092;-64
2021/08/09 01:50:12;;;;;;;24.20;3.50;;;38.40;39.10;;;;;;5042547;28;20547;-66
2021/08/09 01:52:41;;;;;;;27.35;3.58;;;38.30;39.30;;;;;;5041790;28;20108;-65
2021/08/09 01:55:09;;;;;;;33.83;4.80;;;38.20;39.70;;;;;;5043602;28;20073;-65
2021/08/09 01:57:37;;;;;;;27.67;3.65;;;38.00;39.80;;;;;;5042382;28;20096;-66
2021/08/09 02:00:10;;;;;;;29.73;3.90;;;38.00;40.20;;;;;;5039785;28;20077;-66
2021/08/09 02:02:36;;;;;;;14.45;3.38;;;37.90;40.60;;;;;;5043979;28;20512;-66
2021/08/09 02:05:11;;;;;;;20.38;3.70;;;37.80;41.10;;;;;;5044507;28;20121;-65
2021/08/09 02:07:40;;;;;;;27.65;4.22;;;37.80;41.60;;;;;;5043639;28;20072;-69
2021/08/09 02:10:08;;;;;;;26.30;4.30;;;37.70;41.80;;;;;;5042243;28;20082;-65
2021/08/09 02:12:55;;;;;;;33.22;3.88;;;37.50;42.00;;;;;;5042522;28;20168;-66
2021/08/09 02:15:36;;;;;;;25.58;4.80;;;37.30;50.50;;;;;;5039091;28;20017;-65
2021/08/09 02:18:32;;;;;;;14.52;4.00;;;37.30;42.60;;;;;;5043120;28;20070;-65
2021/08/09 02:21:02;;;;;;;30.90;4.75;;;37.20;42.80;;;;;;5014546;28;20081;-65
2021/08/09 02:23:43;;;;;;;29.27;4.47;;;37.20;43.10;;;;;;5044443;28;20081;-66
2021/08/09 02:26:11;;;;;;;33.88;5.70;;;37.10;43.30;;;;;;5042074;28;20074;-64
2021/08/09 02:28:44;;;;;;;21.55;4.40;;;37.00;43.60;;;;;;5042297;28;20066;-61
2021/08/09 02:31:12;;;;;;;26.33;5.32;;;36.90;43.90;;;;;;5045995;28;20085;-61
2021/08/09 02:33:40;;;;;;;17.23;3.78;;;36.90;44.40;;;;;;5040441;28;20085;-61
2021/08/09 02:36:07;;;;;;;21.60;4.40;;;36.80;45.00;;;;;;5042031;28;20160;-61
2021/08/09 02:38:34;;;;;;;20.20;4.55;;;36.70;45.60;;;;;;5044218;28;20077;-60
2021/08/09 02:41:02;;;;;;;36.53;5.10;;;36.70;46.10;;;;;;5046456;28;20522;-61
2021/08/09 02:43:29;;;;;;;28.35;4.95;;;36.50;46.60;;;;;;5040334;28;20077;-60
2021/08/09 02:45:57;;;;;;;24.30;6.70;;;36.50;47.10;;;;;;5042188;28;20089;-63
2021/08/09 02:48:26;;;;;;;34.63;4.55;;;36.40;47.60;;;;;;5041211;28;20089;-60
2021/08/09 02:50:53;;;;;;;25.58;5.38;;;36.20;48.20;;;;;;5037087;28;20156;-61
2021/08/09 02:53:23;;;;;;;27.55;5.30;;;36.20;48.60;;;;;;5040147;28;20081;-59
2021/08/09 02:55:57;;;;;;;30.85;4.13;;;36.10;48.90;;;;;;5045961;28;20519;-60
2021/08/09 02:58:24;;;;;;;36.85;4.70;;;36.00;49.30;;;;;;5042421;28;20065;-59
2021/08/09 03:00:54;;;;;;;30.75;5.10;;;36.00;49.70;;;;;;5044788;28;20442;-63
2021/08/09 03:03:27;;;;;;;24.45;4.20;;;35.80;50.10;;;;;;5044987;28;20066;-59
2021/08/09 03:05:56;;;;;;;25.80;4.03;;;35.70;50.50;;;;;;5043599;28;20252;-63
2021/08/09 03:08:24;;;;;;;15.23;3.60;;;35.70;50.90;;;;;;5043413;28;20451;-60
2021/08/09 03:10:51;;;;;;;30.95;4.75;;;35.50;51.40;;;;;;5042564;28;20462;-62
2021/08/09 03:13:25;;;;;;;31.85;4.75;;;35.40;51.90;;;;;;5039612;28;20082;-61
2021/08/09 03:15:54;;;;;;;20.55;3.88;;;35.30;52.30;;;;;;5039082;28;20163;-63
2021/08/09 03:18:20;;;;;;;26.73;4.05;;;35.30;52.90;;;;;;5041671;28;20096;-60
2021/08/09 03:20:47;;;;;;;28.08;4.15;;;35.20;53.30;;;;;;5041002;28;20553;-60
2021/08/09 03:23:14;;;;;;;37.25;4.32;;;35.10;54.10;;;;;;5042259;28;20101;-60
2021/08/09 03:25:40;;;;;;;32.65;4.82;;;35.10;54.70;;;;;;5039577;28;20093;-61
2021/08/09 03:28:07;;;;;;;36.67;5.40;;;34.90;55.20;;;;;;5039118;28;20078;-61
2021/08/09 03:30:34;;;;;;;24.48;4.80;;;34.90;55.80;;;;;;5039367;28;20149;-59
2021/08/09 03:33:01;;;;;;;28.08;4.93;;;34.80;56.10;;;;;;5046818;28;20215;-60
2021/08/09 03:35:27;;;;;;;26.27;3.88;;;34.70;56.20;;;;;;5049676;28;20085;-60
2021/08/09 03:37:54;;;;;;;32.17;4.25;;;34.70;56.20;;;;;;5048929;28;20077;-62
2021/08/09 03:40:20;;;;;;;23.67;4.85;;;34.60;56.00;;;;;;5044854;28;20101;-60
2021/08/09 03:42:47;;;;;;;72.82;5.28;;;34.60;56.00;;;;;;5044602;28;20235;-64
2021/08/09 03:45:14;;;;;;;27.45;4.30;;;34.60;56.50;;;;;;5050396;28;20199;-62
2021/08/09 03:47:40;;;;;;;30.77;4.35;;;34.50;56.30;;;;;;5050923;28;20080;-62
2021/08/09 03:50:08;;;;;;;30.30;4.40;;;34.30;56.70;;;;;;5050558;28;20070;-62
2021/08/09 03:52:34;;;;;;;19.13;4.10;;;34.20;57.10;;;;;;5044838;28;20082;-59
2021/08/09 03:55:01;;;;;;;27.95;4.45;;;34.30;57.30;;;;;;5047118;28;20081;-64
2021/08/09 03:57:27;;;;;;;21.30;3.95;;;34.20;57.80;;;;;;5047521;28;20081;-61
2021/08/09 03:59:54;;;;;;;35.80;4.40;;;34.10;58.40;;;;;;5043490;28;20113;-62
2021/08/09 04:02:28;;;;;;;28.48;4.38;;;34.10;59.20;;;;;;5046236;28;20093;-63
2021/08/09 04:04:57;;;;;;;32.03;4.60;;;34.10;59.80;;;;;;5051258;28;20113;-61
2021/08/09 04:07:25;;;;;;;19.27;4.55;;;34.10;60.60;;;;;;5046301;28;20517;-61
2021/08/09 04:09:51;;;;;;;25.98;5.22;;;34.10;61.20;;;;;;5047715;28;20085;-59
2021/08/09 04:12:18;;;;;;;24.80;4.50;;;33.90;61.70;;;;;;5046352;28;20077;-64
2021/08/09 04:14:44;;;;;;;24.05;4.57;;;33.90;62.40;;;;;;5047177;28;20161;-62
2021/08/09 04:17:11;;;;;;;26.08;4.85;;;33.80;62.80;;;;;;5046901;28;20082;-62
2021/08/09 04:19:37;;;;;;;32.50;4.57;;;33.70;63.40;;;;;;5047446;28;20103;-60
2021/08/09 04:22:04;;;;;;;21.42;4.80;;;33.60;64.40;;;;;;5042979;28;20105;-62
2021/08/09 04:24:31;;;;;;;18.00;3.80;;;33.50;64.60;;;;;;5047593;28;20089;-62
2021/08/09 04:26:57;;;;;;;24.10;4.93;;;33.50;65.00;;;;;;5051432;28;20077;-63
2021/08/09 04:29:23;;;;;;;25.30;4.57;;;33.50;65.40;;;;;;5041753;28;20106;-63
2021/08/09 04:31:50;;;;;;;23.20;4.38;;;33.50;65.70;;;;;;5044504;28;20442;-60
2021/08/09 04:34:17;;;;;;;24.20;4.47;;;33.50;66.30;;;;;;5043764;28;20084;-63
2021/08/09 04:36:43;;;;;;;24.60;5.20;;;33.50;66.90;;;;;;5046866;28;20065;-62
2021/08/09 04:39:10;;;;;;;18.83;4.22;;;33.40;67.10;;;;;;5048217;28;20152;-61
2021/08/09 04:41:36;;;;;;;18.58;3.95;;;33.40;67.50;;;;;;5052262;28;20094;-61
2021/08/09 04:44:05;;;;;;;19.98;4.78;;;33.40;67.60;;;;;;5047754;28;20549;-64
2021/08/09 04:46:32;;;;;;;25.45;4.53;;;33.30;68.20;;;;;;5046618;28;20535;-63
2021/08/09 04:48:58;;;;;;;24.08;4.72;;;33.30;68.20;;;;;;5046834;28;20078;-62
2021/08/09 04:51:24;;;;;;;25.60;4.60;;;33.30;68.40;;;;;;5046534;28;20082;-61
2021/08/09 04:53:51;;;;;;;20.88;4.28;;;33.20;68.50;;;;;;5049959;28;20076;-62
2021/08/09 04:56:17;;;;;;;26.35;4.63;;;33.20;68.90;;;;;;5048127;28;20073;-61
2021/08/09 04:58:44;;;;;;;19.08;3.83;;;33.10;69.10;;;;;;5047696;28;20073;-62
2021/08/09 05:01:10;;;;;;;20.60;5.20;;;33.10;69.70;;;;;;5042393;28;20137;-63
2021/08/09 05:03:40;;;;;;;21.70;4.72;;;33.10;70.00;;;;;;5037259;28;20070;-61
2021/08/09 05:06:11;;;;;;;39.85;4.63;;;33.00;70.30;;;;;;5044552;28;20114;-63
2021/08/09 05:08:37;;;;;;;25.10;4.70;;;32.90;70.70;;;;;;5044647;28;20119;-62
2021/08/09 05:11:04;;;;;;;18.90;4.72;;;32.90;71.10;;;;;;5044023;28;20596;-62
2021/08/09 05:13:30;;;;;;;21.02;4.85;;;32.90;71.20;;;;;;5041612;28;20078;-62
2021/08/09 05:15:57;;;;;;;18.85;4.70;;;32.90;71.20;;;;;;5048860;28;20081;-62
2021/08/09 05:18:23;;;;;;;23.63;4.93;;;32.80;71.30;;;;;;5044968;28;20596;-60
2021/08/09 05:20:50;;;;;;;20.70;4.57;;;32.80;71.60;;;;;;5040341;28;20165;-58
2021/08/09 05:23:17;;;;;;;26.67;5.65;;;32.70;71.80;;;;;;5045424;28;20086;-62
2021/08/09 05:25:44;;;;;;;26.20;5.10;;;32.70;71.90;;;;;;5044511;28;20073;-63
2021/08/09 05:28:10;;;;;;;20.30;5.30;;;32.70;72.10;;;;;;5043468;28;20092;-62
2021/08/09 05:30:37;;;;;;;23.00;4.93;;;32.70;72.20;;;;;;5050299;28;20211;-62
2021/08/09 05:33:04;;;;;;;29.92;6.28;;;32.70;72.40;;;;;;5042097;28;20078;-57
2021/08/09 05:35:31;;;;;;;31.42;6.00;;;32.70;72.60;;;;;;5042433;28;20078;-56
2021/08/09 05:37:57;;;;;;;20.02;5.05;;;32.70;72.50;;;;;;5045363;28;20480;-58
2021/08/09 05:40:24;;;;;;;17.63;4.85;;;32.90;72.20;;;;;;5043475;28;20074;-55
2021/08/09 05:42:51;;;;;;;18.42;4.82;;;33.10;71.40;;;;;;5040880;28;20105;-58
2021/08/09 05:45:17;;;;;;;19.52;5.45;;;33.20;71.30;;;;;;5041144;28;20157;-58
2021/08/09 05:47:44;;;;;;;17.20;5.40;;;33.30;72.10;;;;;;5041819;28;20111;-56
2021/08/09 05:50:12;;;;;;;26.95;5.25;;;33.10;71.80;;;;;;5043003;28;20562;-60
2021/08/09 05:52:38;;;;;;;25.40;5.63;;;33.00;72.20;;;;;;5041154;28;20470;-58
2021/08/09 05:55:06;;;;;;;21.70;5.53;;;33.10;71.90;;;;;;5044780;28;20070;-58
2021/08/09 05:57:33;;;;;;;25.70;5.30;;;33.00;72.40;;;;;;5040340;28;20190;-57
2021/08/09 06:00:00;;;;;;;25.55;5.10;;;33.00;72.60;;;;;;5044736;28;20072;-57
2021/08/09 06:02:26;;;;;;;18.58;4.25;;;33.10;99.10;;;;;;5042985;28;20165;-60
2021/08/09 06:04:53;;;;;;;26.15;4.65;;;32.90;88.70;;;;;;5042480;28;20021;-56
2021/08/09 06:07:19;;;;;;;27.45;5.07;;;;;;;;;;5038510;28;20508;-62
2021/08/09 06:09:46;;;;;;;19.73;4.28;;;33.30;99.90;;;;;;5044881;28;20095;-57
2021/08/09 06:12:14;;;;;;;27.20;4.57;;;33.00;79.30;;;;;;5044019;28;20390;-57
2021/08/09 06:14:41;;;;;;;29.55;5.40;;;33.00;72.20;;;;;;5045225;28;20073;-59
2021/08/09 06:17:07;;;;;;;22.25;4.97;;;33.00;72.30;;;;;;5045495;28;20069;-56
2021/08/09 06:19:35;;;;;;;26.17;5.95;;;33.00;72.00;;;;;;5041250;28;20503;-59
2021/08/09 06:22:02;;;;;;;33.72;7.28;;;32.80;72.10;;;;;;5037831;28;20459;-60
2021/08/09 06:24:29;;;;;;;24.55;6.47;;;32.80;72.30;;;;;;5040833;28;20073;-58
2021/08/09 06:26:55;;;;;;;23.48;6.03;;;32.80;72.40;;;;;;5041048;28;20203;-58
2021/08/09 06:29:21;;;;;;;22.30;5.97;;;32.70;72.60;;;;;;5037088;28;20070;-56
2021/08/09 06:31:48;;;;;;;24.40;5.43;;;32.80;72.00;;;;;;5039592;28;20070;-61
2021/08/09 06:34:14;;;;;;;22.85;5.68;;;32.60;72.60;;;;;;5041805;28;20073;-58
2021/08/09 06:36:41;;;;;;;22.05;5.22;;;32.70;73.30;;;;;;5039598;28;20104;-60
2021/08/09 06:39:07;;;;;;;30.30;5.28;;;32.70;73.10;;;;;;5039626;28;20124;-61
2021/08/09 06:41:35;;;;;;;28.25;5.40;;;32.60;73.00;;;;;;5039437;28;20088;-60
2021/08/09 06:44:01;;;;;;;23.05;4.97;;;32.50;73.70;;;;;;5041059;28;20161;-61
2021/08/09 06:46:28;;;;;;;19.70;5.43;;;32.50;73.70;;;;;;5043110;28;20081;-58
2021/08/09 06:48:55;;;;;;;20.88;4.88;;;32.40;74.10;;;;;;5040496;28;20073;-56
2021/08/09 06:51:22;;;;;;;25.23;4.93;;;32.40;74.80;;;;;;5040790;28;20074;-61
2021/08/09 06:53:48;;;;;;;19.20;4.00;;;32.30;86.20;;;;;;5041062;28;20585;-58
2021/08/09 06:56:15;;;;;;;26.88;4.68;;;32.30;85.30;;;;;;5046520;28;20063;-55
2021/08/09 06:58:43;;;;;;;20.52;5.03;;;32.30;76.60;;;;;;5041601;28;20085;-55
2021/08/09 07:01:09;;;;;;;15.95;4.15;;;32.20;77.60;;;;;;5037702;28;20095;-57
2021/08/09 07:03:36;;;;;;;24.20;4.47;;;32.10;78.50;;;;;;5041979;28;20135;-58
2021/08/09 07:06:02;;;;;;;20.05;4.15;;;32.10;79.30;;;;;;5041986;28;20105;-58
2021/08/09 07:08:29;;;;;;;23.83;4.57;;;32.10;80.00;;;;;;5042330;28;20074;-57
2021/08/09 07:10:55;;;;;;;17.25;4.07;;;32.20;80.40;;;;;;5046294;28;20128;-55
2021/08/09 07:13:22;;;;;;;14.48;4.25;;;32.10;86.90;;;;;;5042379;28;20025;-57
2021/08/09 07:15:48;;;;;;;20.45;4.38;;;31.90;90.70;;;;;;5040000;28;20052;-56
2021/08/09 07:18:15;;;;;;;18.33;4.55;;;31.80;83.20;;;;;;5041887;28;20074;-58
2021/08/09 07:20:42;;;;;;;20.30;4.63;;;31.60;94.20;;;;;;5045443;28;20112;-59
2021/08/09 07:23:09;;;;;;;16.23;4.10;;;31.70;85.20;;;;;;5041185;28;20566;-59
2021/08/09 07:25:35;;;;;;;19.88;5.18;;;31.70;86.00;;;;;;5040921;28;20443;-56
2021/08/09 07:28:01;;;;;;;27.38;5.70;;;31.80;86.30;;;;;;5040209;28;20084;-57
2021/08/09 07:30:28;;;;;;;17.85;4.80;;;31.30;86.90;;;;;;5044367;28;20074;-57
2021/08/09 07:32:55;;;;;;;17.63;4.13;;;;;;;;;;5040743;28;20073;-59
2021/08/09 07:35:22;;;;;;;19.20;4.65;;;31.60;95.00;;;;;;5039688;28;20089;-60
2021/08/09 07:37:48;;;;;;;14.35;4.25;;;;;;;;;;5046711;28;20080;-60
2021/08/09 07:40:15;;;;;;;23.33;4.63;;;31.50;94.50;;;;;;5041672;28;20425;-59
2021/08/09 07:42:41;;;;;;;17.13;4.30;;;;;;;;;;5039726;28;20625;-57
2021/08/09 07:45:09;;;;;;;20.00;4.70;;;31.70;95.50;;;;;;5042751;28;20072;-57
2021/08/09 07:47:36;;;;;;;22.17;4.65;;;31.60;88.00;;;;;;5038695;28;20088;-58
2021/08/09 07:50:03;;;;;;;18.95;4.05;;;31.40;98.80;;;;;;5039469;28;20080;-57
2021/08/09 07:52:30;;;;;;;20.55;4.50;;;31.30;99.90;;;;;;5040674;28;20031;-57
2021/08/09 07:54:56;;;;;;;16.25;4.28;;;31.60;99.90;;;;;;5041103;28;20102;-57
2021/08/09 07:57:23;;;;;;;21.05;4.50;;;31.50;89.70;;;;;;5038214;28;20101;-58
2021/08/09 07:59:50;;;;;;;20.80;4.78;;;32.70;99.60;;;;;;5039390;28;20165;-58
2021/08/09 08:02:16;;;;;;;18.95;4.00;;;;;;;;;;5041760;28;20108;-58
2021/08/09 08:04:43;;;;;;;19.02;4.35;;;31.40;99.90;;;;;;5038862;28;20510;-58
2021/08/09 08:07:10;;;;;;;19.83;4.45;;;31.50;98.40;;;;;;5039258;28;20185;-60
2021/08/09 08:09:36;;;;;;;23.75;4.60;;;31.60;99.90;;;;;;5040412;28;20109;-59
2021/08/09 08:12:03;;;;;;;24.75;4.97;;;31.40;91.60;;;;;;5042089;28;20080;-58
2021/08/09 08:14:30;;;;;;;20.25;4.53;;;31.60;92.20;;;;;;5038179;28;20087;-58
2021/08/09 08:16:58;;;;;;;23.00;5.22;;;31.40;90.80;;;;;;5041815;28;20104;-55
2021/08/09 08:19:24;;;;;;;22.90;4.93;;;31.40;91.00;;;;;;5043288;28;20081;-60
2021/08/09 08:21:51;;;;;;;19.20;4.45;;;31.40;91.10;;;;;;5048234;28;20093;-60
2021/08/09 08:24:17;;;;;;;18.17;4.38;;;31.50;91.10;;;;;;5044572;28;20152;-58
2021/08/09 08:26:44;;;;;;;16.08;4.63;;;31.40;91.20;;;;;;5045403;28;20084;-58
2021/08/09 08:29:10;;;;;;;28.85;4.93;;;31.50;91.30;;;;;;5043772;28;20074;-59
2021/08/09 08:31:37;;;;;;;16.63;4.05;;;31.50;91.30;;;;;;5044591;28;20078;-56
2021/08/09 08:34:03;;;;;;;16.65;3.97;;;31.50;95.90;;;;;;5042844;28;20074;-56
2021/08/09 08:36:30;;;;;;;18.30;4.47;;;31.30;97.10;;;;;;5040305;28;20081;-58
2021/08/09 08:38:57;;;;;;;17.73;5.05;;;31.30;91.70;;;;;;5042367;28;20221;-59
2021/08/09 08:41:24;;;;;;;15.15;4.57;;;31.20;91.90;;;;;;5046909;28;20097;-55
2021/08/09 08:43:51;;;;;;;18.83;3.92;;;31.00;95.30;;;;;;5043959;28;20200;-57
2021/08/09 08:46:18;;;;;;;17.45;4.43;;;31.40;97.60;;;;;;5042024;28;20050;-57
2021/08/09 08:48:46;;;;;;;15.10;4.18;;;31.40;91.90;;;;;;5048034;28;20074;-53
2021/08/09 08:51:12;;;;;;;19.95;4.45;;;31.40;92.10;;;;;;5041229;28;20085;-58
2021/08/09 08:53:39;;;;;;;17.83;4.53;;;31.30;92.00;;;;;;5041035;28;20080;-58
2021/08/09 08:56:08;;;;;;;19.15;4.13;;;31.30;92.30;;;;;;5046240;28;20078;-55
2021/08/09 08:58:35;;;;;;;18.35;3.85;;;31.30;92.40;;;;;;5043428;28;20073;-56
2021/08/09 09:01:02;;;;;;;19.60;4.63;;;31.30;92.60;;;;;;5042821;28;20070;-56
2021/08/09 09:03:28;;;;;;;21.08;4.70;;;31.30;92.60;;;;;;5045196;28;20132;-57
2021/08/09 09:06:06;;;;;;;16.67;4.30;;;31.30;92.70;;;;;;5046995;28;20144;-58
2021/08/09 09:08:40;;;;;;;18.63;4.80;;;31.30;92.80;;;;;;5041692;28;20151;-57
2021/08/09 09:11:11;;;;;;;24.77;6.07;;;31.30;95.00;;;;;;5044841;28;20135;-57
2021/08/09 09:13:57;;;;;;;18.48;5.10;;;31.30;92.50;;;;;;5042428;28;20504;-53
2021/08/09 09:16:24;;;;;;;23.00;5.22;;;31.30;92.80;;;;;;5039953;28;20161;-59
2021/08/09 09:18:57;;;;;;;18.83;5.15;;;31.30;92.90;;;;;;5045763;28;20100;-57
2021/08/09 09:21:35;;;;;;;18.55;4.75;;;31.30;92.90;;;;;;5044533;28;20092;-58
2021/08/09 09:24:12;;;;;;;16.27;5.07;;;31.30;93.00;;;;;;5049888;28;20088;-59
2021/08/09 09:26:41;;;;;;;22.45;5.60;;;31.30;93.10;;;;;;5051006;28;20522;-58
2021/08/09 09:29:10;;;;;;;23.67;5.40;;;31.20;93.30;;;;;;5047931;28;20095;-56
2021/08/09 09:31:38;;;;;;;19.65;4.50;;;31.10;93.40;;;;;;5041272;28;20084;-57
2021/08/09 09:34:14;;;;;;;18.58;4.45;;;31.10;93.70;;;;;;5039766;28;20085;-56
2021/08/09 09:36:51;;;;;;;23.17;5.20;;;31.00;94.70;;;;;;5046240;28;20682;-54
2021/08/09 09:39:33;;;;;;;16.65;4.32;;;31.00;96.30;;;;;;5044337;28;20319;-58
2021/08/09 09:42:06;;;;;;;16.60;4.90;;;31.10;94.50;;;;;;5040424;28;20128;-55
2021/08/09 09:44:35;;;;;;;19.58;4.68;;;31.00;94.50;;;;;;5044265;28;20086;-58
2021/08/09 09:47:27;;;;;;;17.05;4.80;;;31.00;94.60;;;;;;5039400;28;20547;-54
2021/08/09 09:49:59;;;;;;;22.15;5.50;;;31.00;94.70;;;;;;5043231;28;20219;-58
2021/08/09 09:52:29;;;;;;;20.08;4.80;;;31.00;94.90;;;;;;5044708;28;20439;-57
2021/08/09 09:54:59;;;;;;;21.60;4.60;;;31.00;97.80;;;;;;5047003;28;20051;-56
2021/08/09 09:57:27;;;;;;;17.73;4.72;;;31.10;97.60;;;;;;5041143;28;20669;-57
2021/08/09 09:59:58;;;;;;;19.88;4.70;;;31.00;94.40;;;;;;5043779;28;20156;-57
2021/08/09 10:02:26;;;;;;;19.10;5.05;;;31.00;99.90;;;;;;5041889;28;20097;-57
2021/08/09 10:04:53;;;;;;;23.50;4.97;;;31.00;94.60;;;;;;5041927;28;20074;-58
2021/08/09 10:07:23;;;;;;;24.77;5.20;;;31.00;94.80;;;;;;5042170;28;20088;-58
2021/08/09 10:09:50;;;;;;;24.60;4.75;;;31.00;94.70;;;;;;5043630;28;20128;-56
2021/08/09 10:12:22;;;;;;;18.48;4.22;;;30.90;94.90;;;;;;5043255;28;20212;-57
2021/08/09 10:14:48;;;;;;;17.85;4.50;;;30.90;95.10;;;;;;5042989;28;20175;-55
2021/08/09 10:17:18;;;;;;;17.02;4.43;;;30.50;99.90;;;;;;5043126;28;20081;-57
2021/08/09 10:19:47;;;;;;;19.05;4.97;;;31.00;95.00;;;;;;5043809;28;20069;-58
2021/08/09 10:22:17;;;;;;;25.15;4.82;;;30.90;95.00;;;;;;5040241;28;20444;-54
2021/08/09 10:24:43;;;;;;;17.88;4.72;;;30.90;95.00;;;;;;5040973;28;20545;-57
2021/08/09 10:27:10;;;;;;;21.35;4.68;;;30.90;95.00;;;;;;5042818;28;20077;-58
2021/08/09 10:30:00;;;;;;;17.52;4.35;;;30.90;95.10;;;;;;5040499;28;20078;-57
2021/08/09 10:32:26;;;;;;;18.52;5.05;;;30.90;95.00;;;;;;5033409;28;20086;-58
2021/08/09 10:34:53;;;;;;;15.60;4.57;;;30.90;95.10;;;;;;5042172;28;20073;-58
2021/08/09 10:37:22;;;;;;;18.33;5.00;;;30.90;95.10;;;;;;5041377;28;20074;-58
2021/08/09 10:39:59;;;;;;;22.30;4.68;;;30.90;95.00;;;;;;5041732;28;20086;-57
2021/08/09 10:42:40;;;;;;;18.90;4.55;;;30.80;95.00;;;;;;5045334;28;20108;-57
2021/08/09 10:45:38;;;;;;;17.25;4.75;;;30.80;95.40;;;;;;5035520;28;20412;-58
2021/08/09 10:48:06;;;;;;;13.43;4.22;;;30.80;95.20;;;;;;5039238;28;20085;-57
2021/08/09 10:50:34;;;;;;;16.92;4.70;;;30.80;95.20;;;;;;5038926;28;20547;-58
2021/08/09 10:53:01;;;;;;;18.50;4.97;;;30.80;95.10;;;;;;5043371;28;20058;-56
2021/08/09 10:55:30;;;;;;;19.20;4.72;;;30.80;96.30;;;;;;5036887;28;20077;-58
2021/08/09 10:58:01;;;;;;;20.20;5.13;;;;;;;;;;5041929;28;20518;-56
2021/08/09 11:00:39;;;;;;;13.23;4.03;;;30.30;99.90;;;;;;5043491;28;20021;-54
2021/08/09 11:03:20;;;;;;;22.50;4.90;;;30.30;99.90;;;;;;5044695;28;20068;-56
2021/08/09 11:05:47;;;;;;;19.63;4.90;;;30.50;95.20;;;;;;5042287;28;20079;-57
2021/08/09 11:08:20;;;;;;;17.70;5.07;;;30.60;95.70;;;;;;5039626;28;20168;-57
2021/08/09 11:10:58;;;;;;;18.85;5.05;;;30.60;95.90;;;;;;5038928;28;20135;-58
2021/08/09 11:13:26;;;;;;;19.10;5.25;;;30.50;96.00;;;;;;5038276;28;20088;-56
2021/08/09 11:15:58;;;;;;;21.92;5.53;;;30.60;96.50;;;;;;5040342;28;20092;-58
2021/08/09 11:18:27;;;;;;;21.58;5.05;;;30.50;97.20;;;;;;5037770;28;20086;-53
2021/08/09 11:21:06;;;;;;;18.98;5.03;;;30.60;96.60;;;;;;5038422;28;20074;-57
2021/08/09 11:23:50;;;;;;;16.55;5.03;;;30.60;96.90;;;;;;5043587;28;20089;-57
2021/08/09 11:26:25;;;;;;;19.52;5.13;;;30.50;96.90;;;;;;5041943;28;20098;-57
2021/08/09 11:29:10;;;;;;;28.35;5.85;;;30.50;97.00;;;;;;5037831;28;20095;-58
2021/08/09 11:31:47;;;;;;;26.48;5.60;;;30.50;97.20;;;;;;5042824;28;20215;-58
2021/08/09 11:34:14;;;;;;;22.20;5.50;;;30.40;97.30;;;;;;5041795;28;20084;-58
2021/08/09 11:36:41;;;;;;;24.40;5.20;;;30.40;97.50;;;;;;5039054;28;20070;-56
2021/08/09 11:39:08;;;;;;;22.65;5.70;;;30.40;97.60;;;;;;5042138;28;20082;-57
2021/08/09 11:41:35;;;;;;;17.95;5.35;;;30.40;97.80;;;;;;5047584;28;20086;-56
2021/08/09 11:44:10;;;;;;;22.30;5.55;;;30.40;97.80;;;;;;5041743;28;20094;-59
2021/08/09 11:46:48;;;;;;;22.45;5.15;;;30.40;98.10;;;;;;5041629;28;20431;-58
2021/08/09 11:49:16;;;;;;;25.00;5.45;;;30.30;98.40;;;;;;5038564;28;20431;-57
2021/08/09 11:51:43;;;;;;;26.77;5.30;;;30.30;98.60;;;;;;5041810;28;20110;-58
2021/08/09 11:54:09;;;;;;;17.27;5.13;;;30.30;98.60;;;;;;5046753;28;20073;-56
2021/08/09 11:56:38;;;;;;;18.23;5.05;;;30.30;98.50;;;;;;5048231;28;20101;-59
2021/08/09 11:59:17;;;;;;;18.88;5.05;;;30.30;98.60;;;;;;5045299;28;20078;-58
2021/08/09 12:01:47;;;;;;;24.08;5.95;;;30.20;98.90;;;;;;5043492;28;20094;-56
2021/08/09 12:04:18;;;;;;;19.40;5.22;;;30.30;99.90;;;;;;5047982;28;20143;-55
2021/08/09 12:07:18;;;;;;;18.77;5.43;;;30.00;99.90;;;;;;5044740;28;20052;-57
2021/08/09 12:09:45;;;;;;;20.27;5.70;;;30.10;99.20;;;;;;5043624;28;20073;-56
2021/08/09 12:12:14;;;;;;;16.23;4.47;;;30.20;99.20;;;;;;5046006;28;20086;-56
2021/08/09 12:14:42;;;;;;;20.52;5.30;;;30.20;99.40;;;;;;5047435;28;20081;-57
2021/08/09 12:17:26;;;;;;;18.05;5.20;;;30.10;99.10;;;;;;5041938;28;20426;-55
2021/08/09 12:19:54;;;;;;;19.40;5.30;;;30.10;99.40;;;;;;5047705;28;20078;-57
2021/08/09 12:22:25;;;;;;;17.65;5.70;;;30.20;99.30;;;;;;5040506;28;20094;-58
2021/08/09 12:25:22;;;;;;;22.77;5.43;;;30.20;99.50;;;;;;5044947;28;20108;-59
2021/08/09 12:28:00;;;;;;;20.63;5.50;;;30.20;99.10;;;;;;5040509;28;20078;-56
2021/08/09 12:30:26;;;;;;;15.50;5.00;;;29.60;99.90;;;;;;5040999;28;20420;-56
2021/08/09 12:33:01;;;;;;;24.67;5.00;;;30.20;99.60;;;;;;5043145;28;20085;-56
2021/08/09 12:35:36;;;;;;;28.48;5.40;;;30.20;99.20;;;;;;5044455;28;20088;-54
2021/08/09 12:38:03;;;;;;;18.50;5.50;;;30.10;99.50;;;;;;5046459;28;20457;-54
2021/08/09 12:40:52;;;;;;;25.10;6.05;;;30.10;99.60;;;;;;5048410;28;20080;-58
2021/08/09 12:43:20;;;;;;;18.27;4.88;;;30.10;99.50;;;;;;5046252;28;20101;-56
2021/08/09 12:45:48;;;;;;;17.80;5.43;;;30.20;99.90;;;;;;5045695;28;20623;-55
2021/08/09 12:48:15;;;;;;;20.17;5.53;;;30.20;99.70;;;;;;5043015;28;20085;-57
2021/08/09 12:50:43;;;;;;;27.65;6.03;;;30.20;99.70;;;;;;5044604;28;20073;-57